TimeEST,TemperatureF,Dew PointF,Humidity,Sea Level PressureIn,VisibilityMPH,Wind Direction,Wind SpeedMPH,Gust SpeedMPH,PrecipitationIn,Events,Conditions,WindDirDegrees,DateUTC
12:55 AM,25.3,16.5,69,30.13,10.0,WNW,11.5,-,N/A,,Mostly Cloudy,290,2013-01-26 05:55:00
1:55 AM,23.7,14.7,69,30.16,10.0,WNW,11.5,-,N/A,,Scattered Clouds,300,2013-01-26 06:55:00
2:55 AM,21.0,11.7,67,30.17,10.0,NW,9.2,-,N/A,,Clear,310,2013-01-26 07:55:00
3:55 AM,13.6,9.0,82,30.19,10.0,West,6.9,-,N/A,,Scattered Clouds,280,2013-01-26 08:55:00
4:55 AM,20.5,13.1,73,30.21,10.0,West,6.9,-,N/A,,Overcast,280,2013-01-26 09:55:00
5:55 AM,20.7,13.6,74,30.23,10.0,WNW,9.2,-,N/A,,Overcast,300,2013-01-26 10:55:00
6:55 AM,19.4,14.2,80,30.26,10.0,Variable,5.8,-,N/A,,Overcast,0,2013-01-26 11:55:00
7:41 AM,19.4,14.0,80,30.29,10.0,West,8.1,-,N/A,,Overcast,270,2013-01-26 12:41:00
7:55 AM,18.9,14.2,82,30.29,10.0,West,8.1,-,N/A,,Overcast,270,2013-01-26 12:55:00
8:55 AM,18.7,13.8,81,30.32,10.0,West,6.9,-,N/A,,Overcast,280,2013-01-26 13:55:00
9:48 AM,19.4,14.0,80,30.35,10.0,West,6.9,-,N/A,,Overcast,280,2013-01-26 14:48:00
9:55 AM,19.8,14.4,80,30.35,10.0,West,8.1,-,N/A,,Overcast,280,2013-01-26 14:55:00
10:04 AM,19.4,14.0,80,30.35,10.0,West,8.1,-,N/A,,Overcast,260,2013-01-26 15:04:00
10:06 AM,19.4,14.0,80,30.35,10.0,West,9.2,-,N/A,,Overcast,260,2013-01-26 15:06:00
10:22 AM,21.2,15.8,80,30.36,10.0,West,8.1,-,N/A,Snow,Light Snow,270,2013-01-26 15:22:00
10:32 AM,21.2,15.8,80,30.36,10.0,West,9.2,-,N/A,,Overcast,260,2013-01-26 15:32:00
10:34 AM,21.2,15.8,80,30.32,10.0,West,8.1,-,N/A,Snow,Light Snow,270,2013-01-26 15:34:00
10:52 AM,21.2,15.8,80,30.38,10.0,WNW,6.9,-,N/A,Snow,Light Snow,290,2013-01-26 15:52:00
10:55 AM,21.7,15.8,78,30.38,10.0,West,5.8,-,0.00,Snow,Light Snow,280,2013-01-26 15:55:00
11:01 AM,21.2,15.8,80,30.38,10.0,WNW,8.1,-,N/A,Snow,Light Snow,290,2013-01-26 16:01:00
11:02 AM,21.2,15.8,80,30.38,10.0,WNW,8.1,-,N/A,,Overcast,300,2013-01-26 16:02:00
11:07 AM,23.0,15.8,74,30.39,10.0,WNW,8.1,-,N/A,,Overcast,290,2013-01-26 16:07:00
11:25 AM,23.0,15.8,74,30.39,10.0,WNW,8.1,-,N/A,,Overcast,300,2013-01-26 16:25:00
11:28 AM,23.0,15.8,74,30.39,10.0,WNW,8.1,-,N/A,,Overcast,300,2013-01-26 16:28:00
11:55 AM,24.4,17.2,74,30.40,10.0,NW,6.9,-,0.00,,Overcast,310,2013-01-26 16:55:00
12:39 PM,24.8,17.6,74,30.38,10.0,WNW,5.8,-,N/A,,Mostly Cloudy,290,2013-01-26 17:39:00
12:55 PM,25.9,17.4,70,30.38,10.0,WNW,4.6,-,N/A,,Mostly Cloudy,300,2013-01-26 17:55:00
1:55 PM,27.3,18.1,68,30.37,10.0,WNW,5.8,-,0.01,,Mostly Cloudy,290,2013-01-26 18:55:00
2:55 PM,28.2,17.4,64,30.37,10.0,West,3.5,-,0.02,,Partly Cloudy,280,2013-01-26 19:55:00
3:55 PM,29.1,18.0,63,30.40,10.0,West,4.6,-,N/A,,Mostly Cloudy,280,2013-01-26 20:55:00
4:28 PM,26.6,17.6,69,30.40,10.0,WNW,3.5,-,N/A,,Overcast,300,2013-01-26 21:28:00
4:55 PM,27.1,17.8,68,30.40,10.0,North,5.8,-,N/A,,Overcast,360,2013-01-26 21:55:00
5:55 PM,25.9,18.3,73,30.41,10.0,NNE,8.1,-,N/A,,Overcast,30,2013-01-26 22:55:00
6:51 PM,21.2,17.6,86,30.43,10.0,NE,6.9,-,N/A,,Scattered Clouds,50,2013-01-26 23:51:00
6:55 PM,21.6,16.5,81,30.42,10.0,NE,8.1,-,N/A,,Scattered Clouds,50,2013-01-26 23:55:00
7:55 PM,19.9,15.1,81,30.43,10.0,East,3.5,-,N/A,,Clear,90,2013-01-27 00:55:00
8:55 PM,16.7,13.1,86,30.44,10.0,Calm,Calm,-,N/A,,Clear,0,2013-01-27 01:55:00
9:55 PM,16.0,12.6,86,30.45,10.0,South,4.6,-,N/A,,Scattered Clouds,180,2013-01-27 02:55:00
10:55 PM,17.4,14.2,87,30.44,10.0,SE,6.9,-,N/A,,Mostly Cloudy,140,2013-01-27 03:55:00
11:55 PM,18.5,14.7,85,30.44,10.0,ESE,5.8,-,N/A,,Overcast,110,2013-01-27 04:55:00